KLM4201 LBSF-LBWN
Flight info
| Callsign | KLM4201 |
|---|---|
| Flight time | 0h 37m |
| Altitude | 25000 |
| Route | GOL3T/27 GOL2T GOL N605 TOTKA TOTKA4D |
| Aircraft | B38M/M-SDE1FGHILORVWXY/HB1 |
Departure
| Time | 2026-05-08 06:46 |
|---|---|
| Airport | Sofia Airport (LBSF) |
Arrival
| Time | 2026-05-08 07:24 |
|---|---|
| Airport | Varna Airport (LBWN) |
| Time | Latitude | Longitude | Altitude | Speed | Heading |
|---|---|---|---|---|---|
| 2026-05-08 06:18 | 42.69129 | 23.40088 | 1761 ft | 0 kts | 198° |
| 2026-05-08 06:35 | 42.69117 | 23.40082 | 1761 ft | 3 kts | 197° |
| 2026-05-08 06:35 | 42.69083 | 23.40062 | 1761 ft | 6 kts | 232° |
| 2026-05-08 06:35 | 42.69091 | 23.39985 | 1759 ft | 6 kts | 288° |
| 2026-05-08 06:36 | 42.69099 | 23.39905 | 1759 ft | 10 kts | 281° |
| 2026-05-08 06:36 | 42.69126 | 23.39781 | 1759 ft | 16 kts | 286° |
| 2026-05-08 06:36 | 42.69161 | 23.39627 | 1758 ft | 16 kts | 287° |
| 2026-05-08 06:36 | 42.69225 | 23.39540 | 1757 ft | 8 kts | 353° |
| 2026-05-08 06:37 | 42.69233 | 23.39541 | 1757 ft | 1 kts | 21° |
| 2026-05-08 06:37 | 42.69222 | 23.39574 | 1757 ft | 10 kts | 143° |
| 2026-05-08 06:37 | 42.69150 | 23.39676 | 1758 ft | 19 kts | 110° |
| 2026-05-08 06:37 | 42.69110 | 23.39857 | 1759 ft | 19 kts | 106° |
| 2026-05-08 06:38 | 42.69082 | 23.40028 | 1760 ft | 16 kts | 104° |
| 2026-05-08 06:38 | 42.69053 | 23.40158 | 1763 ft | 13 kts | 107° |
| 2026-05-08 06:38 | 42.69029 | 23.40269 | 1764 ft | 11 kts | 102° |
| 2026-05-08 06:38 | 42.69010 | 23.40372 | 1764 ft | 10 kts | 103° |
| 2026-05-08 06:39 | 42.68986 | 23.40467 | 1765 ft | 11 kts | 109° |
| 2026-05-08 06:39 | 42.68961 | 23.40574 | 1764 ft | 13 kts | 106° |
| 2026-05-08 06:39 | 42.68938 | 23.40677 | 1762 ft | 4 kts | 107° |
| 2026-05-08 06:39 | 42.68927 | 23.40727 | 1763 ft | 7 kts | 107° |
| 2026-05-08 06:40 | 42.68909 | 23.40807 | 1763 ft | 10 kts | 105° |
| 2026-05-08 06:40 | 42.68911 | 23.40928 | 1761 ft | 15 kts | 65° |
| 2026-05-08 06:40 | 42.68950 | 23.41077 | 1759 ft | 19 kts | 71° |
| 2026-05-08 06:40 | 42.69033 | 23.41215 | 1754 ft | 18 kts | 357° |
| 2026-05-08 06:41 | 42.69152 | 23.41174 | 1755 ft | 17 kts | 342° |
| 2026-05-08 06:41 | 42.69271 | 23.41160 | 1753 ft | 18 kts | 8° |
| 2026-05-08 06:41 | 42.69402 | 23.41197 | 1751 ft | 19 kts | 11° |
| 2026-05-08 06:41 | 42.69482 | 23.41291 | 1751 ft | 14 kts | 90° |
| 2026-05-08 06:42 | 42.69475 | 23.41433 | 1749 ft | 14 kts | 94° |
| 2026-05-08 06:42 | 42.69473 | 23.41455 | 1749 ft | 0 kts | 96° |
| 2026-05-08 06:42 | 42.69473 | 23.41457 | 1749 ft | 0 kts | 97° |
| 2026-05-08 06:42 | 42.69470 | 23.41500 | 1748 ft | 8 kts | 95° |
| 2026-05-08 06:43 | 42.69463 | 23.41609 | 1748 ft | 14 kts | 94° |
| 2026-05-08 06:43 | 42.69453 | 23.41777 | 1747 ft | 21 kts | 94° |
| 2026-05-08 06:43 | 42.69440 | 23.41988 | 1747 ft | 22 kts | 94° |
| 2026-05-08 06:43 | 42.69429 | 23.42185 | 1748 ft | 20 kts | 94° |
| 2026-05-08 06:44 | 42.69416 | 23.42388 | 1747 ft | 22 kts | 95° |
| 2026-05-08 06:44 | 42.69403 | 23.42598 | 1744 ft | 21 kts | 95° |
| 2026-05-08 06:44 | 42.69437 | 23.42746 | 1743 ft | 15 kts | 14° |
| 2026-05-08 06:44 | 42.69487 | 23.42724 | 1741 ft | 6 kts | 315° |
| 2026-05-08 06:45 | 42.69526 | 23.42649 | 1741 ft | 13 kts | 302° |
| 2026-05-08 06:45 | 42.69582 | 23.42518 | 1743 ft | 18 kts | 295° |
| 2026-05-08 06:45 | 42.69609 | 23.42337 | 1745 ft | 22 kts | 274° |
| 2026-05-08 06:45 | 42.69617 | 23.42211 | 1746 ft | 0 kts | 274° |
| 2026-05-08 06:46 | 42.69617 | 23.42210 | 1746 ft | 1 kts | 274° |
| 2026-05-08 06:46 | 42.69633 | 23.41937 | 1746 ft | 70 kts | 275° |
| 2026-05-08 06:46 | 42.69696 | 23.40869 | 1750 ft | 153 kts | 273° |
| 2026-05-08 06:46 | 42.69794 | 23.39274 | 2355 ft | 172 kts | 276° |
| 2026-05-08 06:47 | 42.69924 | 23.37706 | 3182 ft | 187 kts | 278° |
| 2026-05-08 06:47 | 42.70199 | 23.35853 | 3681 ft | 218 kts | 292° |
| 2026-05-08 06:47 | 42.71144 | 23.34039 | 4241 ft | 251 kts | 322° |
| 2026-05-08 06:47 | 42.72739 | 23.33091 | 5214 ft | 261 kts | 356° |
| 2026-05-08 06:48 | 42.74513 | 23.33420 | 6316 ft | 265 kts | 16° |
| 2026-05-08 06:48 | 42.76292 | 23.34040 | 7387 ft | 272 kts | 10° |
| 2026-05-08 06:48 | 42.78125 | 23.34584 | 8408 ft | 276 kts | 25° |
| 2026-05-08 06:48 | 42.79569 | 23.36253 | 9463 ft | 277 kts | 58° |
| 2026-05-08 06:49 | 42.80273 | 23.38674 | 10451 ft | 281 kts | 75° |
| 2026-05-08 06:49 | 42.80699 | 23.41364 | 10858 ft | 306 kts | 79° |
| 2026-05-08 06:49 | 42.81088 | 23.44329 | 11408 ft | 325 kts | 80° |
| 2026-05-08 06:49 | 42.81478 | 23.47391 | 12267 ft | 332 kts | 80° |
| 2026-05-08 06:50 | 42.81866 | 23.50449 | 13169 ft | 335 kts | 81° |
| 2026-05-08 06:50 | 42.82266 | 23.53617 | 14040 ft | 340 kts | 81° |
| 2026-05-08 06:50 | 42.82663 | 23.56764 | 14847 ft | 344 kts | 81° |
| 2026-05-08 06:50 | 42.83071 | 23.60009 | 15651 ft | 349 kts | 81° |
| 2026-05-08 06:51 | 42.83479 | 23.63267 | 16397 ft | 353 kts | 82° |
| 2026-05-08 06:51 | 42.83893 | 23.66575 | 17131 ft | 358 kts | 82° |
| 2026-05-08 06:51 | 42.84309 | 23.69910 | 17819 ft | 363 kts | 83° |
| 2026-05-08 06:51 | 42.84733 | 23.73326 | 18502 ft | 367 kts | 83° |
| 2026-05-08 06:52 | 42.85158 | 23.76757 | 19134 ft | 372 kts | 83° |
| 2026-05-08 06:52 | 42.85590 | 23.80247 | 19760 ft | 377 kts | 83° |
| 2026-05-08 06:52 | 42.86029 | 23.83809 | 20371 ft | 382 kts | 83° |
| 2026-05-08 06:52 | 42.86465 | 23.87360 | 20946 ft | 387 kts | 83° |
| 2026-05-08 06:53 | 42.86911 | 23.90997 | 21505 ft | 391 kts | 83° |
| 2026-05-08 06:53 | 42.87360 | 23.94670 | 22055 ft | 396 kts | 83° |
| 2026-05-08 06:53 | 42.87810 | 23.98361 | 22557 ft | 401 kts | 83° |
| 2026-05-08 06:53 | 42.88271 | 24.02147 | 23102 ft | 405 kts | 83° |
| 2026-05-08 06:54 | 42.88732 | 24.05955 | 23583 ft | 410 kts | 83° |
| 2026-05-08 06:54 | 42.89193 | 24.09763 | 24071 ft | 414 kts | 83° |
| 2026-05-08 06:54 | 42.89662 | 24.13675 | 24540 ft | 418 kts | 83° |
| 2026-05-08 06:54 | 42.90126 | 24.17598 | 24985 ft | 423 kts | 83° |
| 2026-05-08 06:55 | 42.90595 | 24.21544 | 25105 ft | 433 kts | 83° |
| 2026-05-08 06:55 | 42.91101 | 24.25667 | 25103 ft | 443 kts | 83° |
| 2026-05-08 06:55 | 42.91637 | 24.29846 | 25105 ft | 458 kts | 82° |
| 2026-05-08 06:55 | 42.92223 | 24.34186 | 25100 ft | 471 kts | 81° |
| 2026-05-08 06:56 | 42.92857 | 24.38635 | 25098 ft | 480 kts | 81° |
| 2026-05-08 06:56 | 42.93525 | 24.43102 | 25098 ft | 481 kts | 80° |
| 2026-05-08 06:56 | 42.94224 | 24.47568 | 25103 ft | 489 kts | 79° |
| 2026-05-08 06:56 | 42.94961 | 24.52143 | 25098 ft | 492 kts | 79° |
| 2026-05-08 06:57 | 42.95707 | 24.56642 | 25097 ft | 491 kts | 79° |
| 2026-05-08 06:57 | 42.96468 | 24.61194 | 25098 ft | 488 kts | 79° |
| 2026-05-08 06:57 | 42.97204 | 24.65691 | 25103 ft | 487 kts | 80° |
| 2026-05-08 06:57 | 42.97904 | 24.70206 | 25101 ft | 486 kts | 81° |
| 2026-05-08 06:58 | 42.98568 | 24.74732 | 25102 ft | 487 kts | 81° |
| 2026-05-08 06:58 | 42.99197 | 24.79302 | 25096 ft | 487 kts | 82° |
| 2026-05-08 06:58 | 42.99783 | 24.83833 | 25089 ft | 486 kts | 82° |
| 2026-05-08 06:58 | 43.00335 | 24.88373 | 25085 ft | 485 kts | 83° |
| 2026-05-08 06:59 | 43.00859 | 24.92946 | 25081 ft | 485 kts | 83° |
| 2026-05-08 06:59 | 43.01355 | 24.97487 | 25075 ft | 486 kts | 84° |
| 2026-05-08 06:59 | 43.01832 | 25.02026 | 25075 ft | 487 kts | 84° |
| 2026-05-08 06:59 | 43.02303 | 25.06609 | 25072 ft | 487 kts | 84° |
| 2026-05-08 07:00 | 43.02769 | 25.11183 | 25075 ft | 486 kts | 83° |
| 2026-05-08 07:00 | 43.03231 | 25.15751 | 25073 ft | 487 kts | 83° |
| 2026-05-08 07:00 | 43.03695 | 25.20355 | 25073 ft | 488 kts | 83° |
| 2026-05-08 07:00 | 43.04155 | 25.24947 | 25076 ft | 488 kts | 83° |
| 2026-05-08 07:01 | 43.04620 | 25.29486 | 25070 ft | 487 kts | 83° |
| 2026-05-08 07:01 | 43.05093 | 25.34056 | 25072 ft | 486 kts | 83° |
| 2026-05-08 07:01 | 43.05585 | 25.38673 | 25076 ft | 487 kts | 82° |
| 2026-05-08 07:01 | 43.06084 | 25.43200 | 25075 ft | 488 kts | 82° |
| 2026-05-08 07:02 | 43.06607 | 25.47808 | 25073 ft | 489 kts | 82° |
| 2026-05-08 07:02 | 43.07134 | 25.52390 | 25066 ft | 480 kts | 82° |
| 2026-05-08 07:02 | 43.07650 | 25.56751 | 25072 ft | 457 kts | 82° |
| 2026-05-08 07:02 | 43.08165 | 25.60944 | 25074 ft | 433 kts | 81° |
| 2026-05-08 07:03 | 43.08674 | 25.64935 | 25074 ft | 424 kts | 81° |
| 2026-05-08 07:03 | 43.09189 | 25.68927 | 25080 ft | 426 kts | 81° |
| 2026-05-08 07:03 | 43.09700 | 25.72921 | 25076 ft | 429 kts | 82° |
| 2026-05-08 07:03 | 43.10221 | 25.76961 | 25075 ft | 430 kts | 82° |
| 2026-05-08 07:04 | 43.10721 | 25.80940 | 25073 ft | 429 kts | 82° |
| 2026-05-08 07:04 | 43.11203 | 25.84990 | 25073 ft | 427 kts | 83° |
| 2026-05-08 07:04 | 43.11652 | 25.88998 | 25073 ft | 426 kts | 83° |
| 2026-05-08 07:04 | 43.12083 | 25.93004 | 25074 ft | 427 kts | 83° |
| 2026-05-08 07:05 | 43.12490 | 25.96976 | 25007 ft | 425 kts | 84° |
| 2026-05-08 07:05 | 43.12863 | 26.00969 | 24460 ft | 417 kts | 85° |
| 2026-05-08 07:05 | 43.13208 | 26.04870 | 23839 ft | 411 kts | 84° |
| 2026-05-08 07:05 | 43.13553 | 26.08710 | 23268 ft | 404 kts | 84° |
| 2026-05-08 07:06 | 43.13892 | 26.12451 | 22708 ft | 398 kts | 84° |
| 2026-05-08 07:06 | 43.14239 | 26.16184 | 22151 ft | 391 kts | 84° |
| 2026-05-08 07:06 | 43.14593 | 26.19833 | 21604 ft | 385 kts | 84° |
| 2026-05-08 07:06 | 43.14947 | 26.23453 | 21064 ft | 379 kts | 83° |
| 2026-05-08 07:07 | 43.15312 | 26.26992 | 20530 ft | 373 kts | 83° |
| 2026-05-08 07:07 | 43.15668 | 26.30441 | 20009 ft | 368 kts | 83° |
| 2026-05-08 07:07 | 43.16017 | 26.33921 | 19481 ft | 362 kts | 83° |
| 2026-05-08 07:07 | 43.16348 | 26.37296 | 18968 ft | 358 kts | 83° |
| 2026-05-08 07:08 | 43.16668 | 26.40634 | 18466 ft | 358 kts | 84° |
| 2026-05-08 07:08 | 43.16977 | 26.44054 | 17944 ft | 358 kts | 84° |
| 2026-05-08 07:08 | 43.17250 | 26.47378 | 17428 ft | 353 kts | 84° |
| 2026-05-08 07:08 | 43.17505 | 26.50689 | 16925 ft | 348 kts | 85° |
| 2026-05-08 07:09 | 43.17738 | 26.53993 | 16421 ft | 344 kts | 85° |
| 2026-05-08 07:09 | 43.17948 | 26.57231 | 15926 ft | 341 kts | 85° |
| 2026-05-08 07:09 | 43.18142 | 26.60492 | 15432 ft | 345 kts | 86° |
| 2026-05-08 07:09 | 43.18316 | 26.63703 | 14928 ft | 341 kts | 86° |
| 2026-05-08 07:10 | 43.18482 | 26.66969 | 14422 ft | 336 kts | 87° |
| 2026-05-08 07:10 | 43.18640 | 26.70140 | 13942 ft | 332 kts | 86° |
| 2026-05-08 07:10 | 43.18793 | 26.73232 | 13469 ft | 327 kts | 86° |
| 2026-05-08 07:10 | 43.18946 | 26.76345 | 13017 ft | 331 kts | 86° |
| 2026-05-08 07:11 | 43.19100 | 26.79498 | 12601 ft | 326 kts | 86° |
| 2026-05-08 07:11 | 43.19247 | 26.82527 | 12278 ft | 319 kts | 86° |
| 2026-05-08 07:11 | 43.19396 | 26.85613 | 12093 ft | 326 kts | 86° |
| 2026-05-08 07:11 | 43.19544 | 26.88680 | 11688 ft | 323 kts | 86° |
| 2026-05-08 07:12 | 43.19691 | 26.91776 | 11083 ft | 323 kts | 86° |
| 2026-05-08 07:12 | 43.19838 | 26.94855 | 10539 ft | 320 kts | 86° |
| 2026-05-08 07:12 | 43.19972 | 26.97862 | 10207 ft | 311 kts | 86° |
| 2026-05-08 07:12 | 43.20097 | 27.00738 | 10126 ft | 295 kts | 86° |
| 2026-05-08 07:13 | 43.20323 | 27.03451 | 10040 ft | 281 kts | 78° |
| 2026-05-08 07:13 | 43.20891 | 27.05971 | 9954 ft | 268 kts | 65° |
| 2026-05-08 07:13 | 43.21808 | 27.08193 | 9615 ft | 273 kts | 56° |
| 2026-05-08 07:13 | 43.22931 | 27.10325 | 9218 ft | 274 kts | 53° |
| 2026-05-08 07:14 | 43.24079 | 27.12387 | 8870 ft | 272 kts | 52° |
| 2026-05-08 07:14 | 43.25215 | 27.14440 | 8531 ft | 270 kts | 53° |
| 2026-05-08 07:14 | 43.26326 | 27.16508 | 8191 ft | 268 kts | 56° |
| 2026-05-08 07:14 | 43.27233 | 27.18739 | 7834 ft | 267 kts | 66° |
| 2026-05-08 07:15 | 43.27835 | 27.21134 | 7482 ft | 266 kts | 76° |
| 2026-05-08 07:15 | 43.28115 | 27.23624 | 7133 ft | 265 kts | 86° |
| 2026-05-08 07:15 | 43.28083 | 27.26148 | 6786 ft | 264 kts | 94° |
| 2026-05-08 07:15 | 43.27895 | 27.28643 | 6453 ft | 262 kts | 96° |
| 2026-05-08 07:16 | 43.27671 | 27.31120 | 6124 ft | 261 kts | 97° |
| 2026-05-08 07:16 | 43.27452 | 27.33556 | 5799 ft | 259 kts | 96° |
| 2026-05-08 07:16 | 43.27241 | 27.35998 | 5471 ft | 258 kts | 96° |
| 2026-05-08 07:16 | 43.27032 | 27.38452 | 5144 ft | 256 kts | 96° |
| 2026-05-08 07:17 | 43.26828 | 27.40829 | 4852 ft | 250 kts | 96° |
| 2026-05-08 07:17 | 43.26625 | 27.43163 | 4530 ft | 238 kts | 96° |
| 2026-05-08 07:17 | 43.26434 | 27.45364 | 4202 ft | 226 kts | 96° |
| 2026-05-08 07:17 | 43.26254 | 27.47442 | 3978 ft | 211 kts | 96° |
| 2026-05-08 07:18 | 43.26091 | 27.49331 | 3981 ft | 188 kts | 96° |
| 2026-05-08 07:18 | 43.25944 | 27.51029 | 3991 ft | 175 kts | 96° |
| 2026-05-08 07:18 | 43.25803 | 27.52674 | 3995 ft | 174 kts | 96° |
| 2026-05-08 07:18 | 43.25666 | 27.54281 | 4039 ft | 159 kts | 96° |
| 2026-05-08 07:19 | 43.25540 | 27.55759 | 3803 ft | 153 kts | 96° |
| 2026-05-08 07:19 | 43.25421 | 27.57153 | 3714 ft | 143 kts | 96° |
| 2026-05-08 07:19 | 43.25306 | 27.58511 | 3455 ft | 144 kts | 96° |
| 2026-05-08 07:19 | 43.25190 | 27.59851 | 3204 ft | 138 kts | 96° |
| 2026-05-08 07:20 | 43.25073 | 27.61158 | 3208 ft | 140 kts | 96° |
| 2026-05-08 07:20 | 43.24951 | 27.62540 | 3100 ft | 151 kts | 96° |
| 2026-05-08 07:20 | 43.24830 | 27.63939 | 2716 ft | 144 kts | 96° |
| 2026-05-08 07:20 | 43.24714 | 27.65273 | 2520 ft | 143 kts | 97° |
| 2026-05-08 07:21 | 43.24595 | 27.66644 | 2302 ft | 143 kts | 97° |
| 2026-05-08 07:21 | 43.24477 | 27.67990 | 2097 ft | 143 kts | 97° |
| 2026-05-08 07:21 | 43.24359 | 27.69347 | 1903 ft | 143 kts | 97° |
| 2026-05-08 07:21 | 43.24240 | 27.70703 | 1713 ft | 142 kts | 97° |
| 2026-05-08 07:22 | 43.24122 | 27.72040 | 1520 ft | 142 kts | 97° |
| 2026-05-08 07:22 | 43.24004 | 27.73394 | 1326 ft | 142 kts | 97° |
| 2026-05-08 07:22 | 43.23883 | 27.74728 | 1140 ft | 141 kts | 97° |
| 2026-05-08 07:22 | 43.23762 | 27.76057 | 967 ft | 140 kts | 97° |
| 2026-05-08 07:23 | 43.23660 | 27.77360 | 806 ft | 138 kts | 96° |
| 2026-05-08 07:23 | 43.23535 | 27.78691 | 591 ft | 140 kts | 97° |
| 2026-05-08 07:23 | 43.23420 | 27.80021 | 387 ft | 142 kts | 97° |
| 2026-05-08 07:23 | 43.23305 | 27.81356 | 231 ft | 140 kts | 97° |
| 2026-05-08 07:24 | 43.23197 | 27.82485 | 233 ft | 85 kts | 97° |
| 2026-05-08 07:24 | 43.23156 | 27.82959 | 239 ft | 21 kts | 97° |
| 2026-05-08 07:24 | 43.23140 | 27.83156 | 241 ft | 19 kts | 94° |
| 2026-05-08 07:24 | 43.23201 | 27.83239 | 242 ft | 12 kts | 8° |
| 2026-05-08 07:25 | 43.23273 | 27.83250 | 245 ft | 8 kts | 7° |
| 2026-05-08 07:25 | 43.23328 | 27.83260 | 248 ft | 8 kts | 7° |
| 2026-05-08 07:25 | 43.23395 | 27.83104 | 250 ft | 17 kts | 277° |
| 2026-05-08 07:26 | 43.23413 | 27.82894 | 245 ft | 26 kts | 276° |
| 2026-05-08 07:26 | 43.23430 | 27.82700 | 241 ft | 12 kts | 274° |
| 2026-05-08 07:26 | 43.23445 | 27.82677 | 241 ft | 3 kts | 5° |
| 2026-05-08 07:26 | 43.23482 | 27.82707 | 243 ft | 8 kts | 39° |
| 2026-05-08 07:27 | 43.23528 | 27.82744 | 245 ft | 3 kts | 335° |
| 2026-05-08 07:27 | 43.23541 | 27.82728 | 245 ft | 2 kts | 321° |
| 2026-05-08 07:27 | 43.23567 | 27.82699 | 245 ft | 6 kts | 321° |
| 2026-05-08 07:27 | 43.23582 | 27.82682 | 245 ft | 0 kts | 321° |